Terminal Aerodrome Forecast
Issued by NWS

Current Version | Previous Version | Text Only | Print | Product List | Glossary Off
Versions: 1 2 3 4 5 6 7 8 9 10 11 12 13 14 15 16 17 18 19 20 21 22 23 24 25 26 27 28 29 30

000
FTUS41 KILN 231500 AAB
TAFLUK
TAF AMD
KLUK 231500Z 2315/2412 19004KT 5SM -DZ BR OVC012
     FM232100 VRB02KT 5SM BR OVC012
     FM240000 VRB02KT 5SM -SHRA BR OVC009
     FM240400 12003KT 5SM BR OVC015
     FM240700 14006KT 5SM -SHRA BR OVC009=

USA.gov is the U.S. government's official web portal to all federal, state and local government web resources and services.